Lantana, FL

6:03 PM EST on February 05, 2016 (GMT -0500)
Island Estates | | Change Station
CLOSE
Current Station
Personal Weather Station
Location: Lantana, FL
Elevation: 45 ft
Nearby Weather Stations

Elev 45 ft 26.57 °N, 80.08 °W | Updated 3 minutes ago

Overcast
Overcast
66.6 °F
Feels Like 66.6 °F
N
6.0
Wind Variable Wind from NNE
Gusts 8.0 mph

Today
High -- | Low -- °F
--% Chance of Precip.
Yesterday
High -- | Low -- °F
Precip. -- in
Pressure 30.16 in
Visibility 10.0 miles
Clouds Mostly Cloudy 3500 ft
Overcast 4900 ft
Dew Point 56 °F
Humidity 70%
Rainfall 0.25 in
Snow Depth Not available.
7:03 AM 6:05 PM
Waning Crescent, 9% visible
METAR KPBI 052253Z 02012G18KT 10SM BKN035 OVC049 19/11 A3016 RMK AO2 SLP213 T01940111
Pressure 30.16 in
Visibility 10.0 miles
Clouds Mostly Cloudy 3500 ft
Overcast 4900 ft
Dew Point 56 °F
Humidity 70%
Rainfall 0.25 in
Snow Depth Not available.
7:03 AM 6:05 PM
Waning Crescent, 9% visible
METAR KPBI 052253Z 02012G18KT 10SM BKN035 OVC049 19/11 A3016 RMK AO2 SLP213 T01940111

10-Day Weather Forecast

Almanac

Astronomy

Feb. 05, 2016 Rise Set
Actual Time
Civil Twilight
Nautical Twilight
Astronomical Twilight
Moon
Length of Visible Light
Length of Day
Tomorrow will be .
, % of the Moon is Illuminated

Today's Extremes

State Highs State Lows

Community

WunderPhotos

Upload Photos

1,890,879 photos uploaded!

WunderBlog® & News

Nearby

Air Quality

  Air Quality AQ Index Pollutant
Not available.

Snow Depth

Station Depth Elevation

Earthquake Activity

City Distance Mag. Time & Date
Minimum magnitude displayed is 2.5.

Coastal Water Temperatures

Place Temperature

Stations

Nearby Weather Stations

Station Location Temp. Windchill Dew Point Humidity Wind Precip. Elev Updated Type
                   

Watches & Warnings

There are currently no watches in effect.